sensor_id;sensor_type;location;lat;lon;timestamp;P1;durP1;ratioP1;P2;durP2;ratioP2
5543;SDS011;2795;47.652;13.128;2023-03-01T00:02:26;36.80;;;15.10;;
5543;SDS011;2795;47.652;13.128;2023-03-01T00:04:53;34.83;;;14.43;;
5543;SDS011;2795;47.652;13.128;2023-03-01T00:07:19;32.40;;;13.90;;
5543;SDS011;2795;47.652;13.128;2023-03-01T00:09:46;26.20;;;13.43;;
5543;SDS011;2795;47.652;13.128;2023-03-01T00:12:12;30.40;;;14.50;;
5543;SDS011;2795;47.652;13.128;2023-03-01T00:14:39;37.03;;;15.30;;
5543;SDS011;2795;47.652;13.128;2023-03-01T00:17:06;29.17;;;14.00;;
5543;SDS011;2795;47.652;13.128;2023-03-01T00:19:32;35.93;;;14.90;;
5543;SDS011;2795;47.652;13.128;2023-03-01T00:21:59;32.67;;;14.67;;
5543;SDS011;2795;47.652;13.128;2023-03-01T00:24:26;40.30;;;15.97;;
5543;SDS011;2795;47.652;13.128;2023-03-01T00:26:53;30.73;;;13.27;;
5543;SDS011;2795;47.652;13.128;2023-03-01T00:29:22;33.30;;;14.63;;
5543;SDS011;2795;47.652;13.128;2023-03-01T00:31:49;28.70;;;13.13;;
5543;SDS011;2795;47.652;13.128;2023-03-01T00:34:16;30.07;;;14.17;;
5543;SDS011;2795;47.652;13.128;2023-03-01T00:36:43;30.27;;;13.20;;
5543;SDS011;2795;47.652;13.128;2023-03-01T00:39:11;30.10;;;13.70;;
5543;SDS011;2795;47.652;13.128;2023-03-01T00:41:42;28.30;;;14.67;;
5543;SDS011;2795;47.652;13.128;2023-03-01T00:44:09;27.53;;;13.10;;
5543;SDS011;2795;47.652;13.128;2023-03-01T00:46:36;33.60;;;14.70;;
5543;SDS011;2795;47.652;13.128;2023-03-01T00:49:03;32.43;;;14.47;;
5543;SDS011;2795;47.652;13.128;2023-03-01T00:51:31;33.40;;;14.23;;
5543;SDS011;2795;47.652;13.128;2023-03-01T00:54:00;33.03;;;14.33;;
5543;SDS011;2795;47.652;13.128;2023-03-01T00:56:27;32.80;;;14.67;;
5543;SDS011;2795;47.652;13.128;2023-03-01T00:58:55;43.27;;;15.40;;
5543;SDS011;2795;47.652;13.128;2023-03-01T01:01:23;31.87;;;13.13;;
5543;SDS011;2795;47.652;13.128;2023-03-01T01:04:01;28.77;;;12.10;;
5543;SDS011;2795;47.652;13.128;2023-03-01T01:06:41;32.87;;;13.47;;
5543;SDS011;2795;47.652;13.128;2023-03-01T01:09:11;32.20;;;12.50;;
5543;SDS011;2795;47.652;13.128;2023-03-01T01:11:46;26.27;;;11.60;;
5543;SDS011;2795;47.652;13.128;2023-03-01T01:14:15;26.60;;;11.20;;
5543;SDS011;2795;47.652;13.128;2023-03-01T01:16:43;26.30;;;11.10;;
5543;SDS011;2795;47.652;13.128;2023-03-01T01:19:10;25.57;;;10.80;;
5543;SDS011;2795;47.652;13.128;2023-03-01T01:21:37;28.87;;;12.40;;
5543;SDS011;2795;47.652;13.128;2023-03-01T01:24:04;34.33;;;11.33;;
5543;SDS011;2795;47.652;13.128;2023-03-01T01:26:32;34.20;;;12.90;;
5543;SDS011;2795;47.652;13.128;2023-03-01T01:29:00;28.30;;;12.57;;
5543;SDS011;2795;47.652;13.128;2023-03-01T01:31:27;29.80;;;12.67;;
5543;SDS011;2795;47.652;13.128;2023-03-01T01:33:55;30.70;;;12.03;;
5543;SDS011;2795;47.652;13.128;2023-03-01T01:36:22;26.20;;;11.70;;
5543;SDS011;2795;47.652;13.128;2023-03-01T01:38:49;32.47;;;13.60;;
5543;SDS011;2795;47.652;13.128;2023-03-01T01:41:17;31.20;;;13.37;;
5543;SDS011;2795;47.652;13.128;2023-03-01T01:43:46;28.63;;;12.23;;
5543;SDS011;2795;47.652;13.128;2023-03-01T01:48:41;29.40;;;12.93;;
5543;SDS011;2795;47.652;13.128;2023-03-01T01:51:27;31.83;;;12.60;;
5543;SDS011;2795;47.652;13.128;2023-03-01T01:54:21;29.23;;;12.90;;
5543;SDS011;2795;47.652;13.128;2023-03-01T01:57:03;32.77;;;13.60;;
5543;SDS011;2795;47.652;13.128;2023-03-01T01:59:35;35.77;;;12.63;;
5543;SDS011;2795;47.652;13.128;2023-03-01T02:02:03;28.07;;;12.67;;
5543;SDS011;2795;47.652;13.128;2023-03-01T02:04:31;28.33;;;11.33;;
5543;SDS011;2795;47.652;13.128;2023-03-01T02:07:01;28.30;;;11.50;;
5543;SDS011;2795;47.652;13.128;2023-03-01T02:09:30;31.20;;;11.70;;
5543;SDS011;2795;47.652;13.128;2023-03-01T02:11:57;24.90;;;10.63;;
5543;SDS011;2795;47.652;13.128;2023-03-01T02:14:24;30.00;;;11.60;;
5543;SDS011;2795;47.652;13.128;2023-03-01T02:16:51;27.53;;;11.67;;
5543;SDS011;2795;47.652;13.128;2023-03-01T02:22:20;28.07;;;12.53;;
5543;SDS011;2795;47.652;13.128;2023-03-01T02:24:53;30.83;;;11.83;;
5543;SDS011;2795;47.652;13.128;2023-03-01T02:27:26;35.67;;;12.50;;
5543;SDS011;2795;47.652;13.128;2023-03-01T02:29:59;27.80;;;11.43;;
5543;SDS011;2795;47.652;13.128;2023-03-01T02:32:25;29.53;;;11.27;;
5543;SDS011;2795;47.652;13.128;2023-03-01T02:34:52;29.87;;;12.23;;
5543;SDS011;2795;47.652;13.128;2023-03-01T02:37:20;27.60;;;11.33;;
5543;SDS011;2795;47.652;13.128;2023-03-01T02:39:53;24.87;;;11.00;;
5543;SDS011;2795;47.652;13.128;2023-03-01T02:42:26;31.77;;;11.77;;
5543;SDS011;2795;47.652;13.128;2023-03-01T02:44:54;30.47;;;11.77;;
5543;SDS011;2795;47.652;13.128;2023-03-01T02:47:21;37.17;;;15.00;;
5543;SDS011;2795;47.652;13.128;2023-03-01T02:49:47;35.30;;;14.43;;
5543;SDS011;2795;47.652;13.128;2023-03-01T02:57:39;36.23;;;12.67;;
5543;SDS011;2795;47.652;13.128;2023-03-01T03:00:08;33.53;;;13.40;;
5543;SDS011;2795;47.652;13.128;2023-03-01T03:02:36;43.63;;;13.80;;
5543;SDS011;2795;47.652;13.128;2023-03-01T03:07:32;26.10;;;11.67;;
5543;SDS011;2795;47.652;13.128;2023-03-01T03:10:01;23.93;;;10.90;;
5543;SDS011;2795;47.652;13.128;2023-03-01T03:12:28;33.17;;;11.57;;
5543;SDS011;2795;47.652;13.128;2023-03-01T03:14:55;38.87;;;15.17;;
5543;SDS011;2795;47.652;13.128;2023-03-01T03:17:21;29.70;;;12.20;;
5543;SDS011;2795;47.652;13.128;2023-03-01T03:19:48;29.33;;;12.87;;
5543;SDS011;2795;47.652;13.128;2023-03-01T03:22:15;28.07;;;12.27;;
5543;SDS011;2795;47.652;13.128;2023-03-01T03:24:42;29.50;;;11.87;;
5543;SDS011;2795;47.652;13.128;2023-03-01T03:27:08;27.97;;;11.80;;
5543;SDS011;2795;47.652;13.128;2023-03-01T03:29:35;32.53;;;11.57;;
5543;SDS011;2795;47.652;13.128;2023-03-01T03:32:01;33.13;;;11.73;;
5543;SDS011;2795;47.652;13.128;2023-03-01T03:34:28;35.23;;;12.13;;
5543;SDS011;2795;47.652;13.128;2023-03-01T03:36:55;27.97;;;11.23;;
5543;SDS011;2795;47.652;13.128;2023-03-01T03:39:26;26.03;;;10.37;;
5543;SDS011;2795;47.652;13.128;2023-03-01T03:41:53;30.33;;;10.63;;
5543;SDS011;2795;47.652;13.128;2023-03-01T03:44:20;29.13;;;11.97;;
5543;SDS011;2795;47.652;13.128;2023-03-01T03:46:47;25.57;;;11.00;;
5543;SDS011;2795;47.652;13.128;2023-03-01T03:49:14;28.73;;;10.77;;
5543;SDS011;2795;47.652;13.128;2023-03-01T03:51:40;25.23;;;10.07;;
5543;SDS011;2795;47.652;13.128;2023-03-01T03:54:07;28.27;;;11.33;;
5543;SDS011;2795;47.652;13.128;2023-03-01T03:56:34;27.57;;;11.63;;
5543;SDS011;2795;47.652;13.128;2023-03-01T03:59:01;29.10;;;11.10;;
5543;SDS011;2795;47.652;13.128;2023-03-01T04:01:27;30.13;;;11.23;;
5543;SDS011;2795;47.652;13.128;2023-03-01T04:03:54;23.47;;;10.43;;
5543;SDS011;2795;47.652;13.128;2023-03-01T04:06:20;31.53;;;11.50;;
5543;SDS011;2795;47.652;13.128;2023-03-01T04:08:47;24.07;;;10.60;;
5543;SDS011;2795;47.652;13.128;2023-03-01T04:11:17;30.67;;;10.87;;
5543;SDS011;2795;47.652;13.128;2023-03-01T04:13:53;24.97;;;11.07;;
5543;SDS011;2795;47.652;13.128;2023-03-01T04:16:21;27.87;;;11.63;;
5543;SDS011;2795;47.652;13.128;2023-03-01T04:18:48;18.70;;;9.70;;
5543;SDS011;2795;47.652;13.128;2023-03-01T04:21:15;30.20;;;11.90;;
5543;SDS011;2795;47.652;13.128;2023-03-01T04:23:42;25.63;;;11.30;;
5543;SDS011;2795;47.652;13.128;2023-03-01T04:26:09;28.27;;;11.20;;
5543;SDS011;2795;47.652;13.128;2023-03-01T04:28:37;24.77;;;10.43;;
5543;SDS011;2795;47.652;13.128;2023-03-01T04:31:07;31.40;;;12.87;;
5543;SDS011;2795;47.652;13.128;2023-03-01T04:33:52;25.03;;;12.50;;
5543;SDS011;2795;47.652;13.128;2023-03-01T04:36:20;33.10;;;12.83;;
5543;SDS011;2795;47.652;13.128;2023-03-01T04:38:49;31.43;;;12.10;;
5543;SDS011;2795;47.652;13.128;2023-03-01T04:41:17;35.50;;;12.90;;
5543;SDS011;2795;47.652;13.128;2023-03-01T04:43:44;25.10;;;11.30;;
5543;SDS011;2795;47.652;13.128;2023-03-01T04:46:12;24.83;;;10.70;;
5543;SDS011;2795;47.652;13.128;2023-03-01T04:48:41;27.97;;;12.73;;
5543;SDS011;2795;47.652;13.128;2023-03-01T04:51:09;38.00;;;13.67;;
5543;SDS011;2795;47.652;13.128;2023-03-01T04:53:35;33.23;;;12.60;;
5543;SDS011;2795;47.652;13.128;2023-03-01T04:56:05;26.70;;;11.80;;
5543;SDS011;2795;47.652;13.128;2023-03-01T04:58:32;33.03;;;12.77;;
5543;SDS011;2795;47.652;13.128;2023-03-01T05:00:59;38.37;;;12.73;;
5543;SDS011;2795;47.652;13.128;2023-03-01T05:03:25;30.40;;;11.43;;
5543;SDS011;2795;47.652;13.128;2023-03-01T05:05:52;30.20;;;11.70;;
5543;SDS011;2795;47.652;13.128;2023-03-01T05:08:19;26.33;;;11.30;;
5543;SDS011;2795;47.652;13.128;2023-03-01T05:10:51;35.27;;;13.13;;
5543;SDS011;2795;47.652;13.128;2023-03-01T05:13:19;25.60;;;11.10;;
5543;SDS011;2795;47.652;13.128;2023-03-01T05:15:56;34.07;;;13.07;;
5543;SDS011;2795;47.652;13.128;2023-03-01T05:18:24;37.40;;;12.53;;
5543;SDS011;2795;47.652;13.128;2023-03-01T05:20:55;24.10;;;11.20;;
5543;SDS011;2795;47.652;13.128;2023-03-01T05:23:24;34.27;;;13.27;;
5543;SDS011;2795;47.652;13.128;2023-03-01T05:25:51;31.13;;;12.87;;
5543;SDS011;2795;47.652;13.128;2023-03-01T05:28:19;26.73;;;11.40;;
5543;SDS011;2795;47.652;13.128;2023-03-01T05:30:46;33.27;;;12.93;;
5543;SDS011;2795;47.652;13.128;2023-03-01T05:33:13;27.87;;;11.33;;
5543;SDS011;2795;47.652;13.128;2023-03-01T05:35:40;26.23;;;11.73;;
5543;SDS011;2795;47.652;13.128;2023-03-01T05:38:09;27.40;;;11.33;;
5543;SDS011;2795;47.652;13.128;2023-03-01T05:40:40;39.30;;;13.07;;
5543;SDS011;2795;47.652;13.128;2023-03-01T05:43:07;26.33;;;11.53;;
5543;SDS011;2795;47.652;13.128;2023-03-01T05:45:35;28.67;;;10.77;;
5543;SDS011;2795;47.652;13.128;2023-03-01T05:48:02;27.30;;;10.30;;
5543;SDS011;2795;47.652;13.128;2023-03-01T05:50:29;27.17;;;10.63;;
5543;SDS011;2795;47.652;13.128;2023-03-01T05:53:00;22.10;;;9.90;;
5543;SDS011;2795;47.652;13.128;2023-03-01T05:55:47;20.70;;;9.43;;
5543;SDS011;2795;47.652;13.128;2023-03-01T05:58:15;25.77;;;10.07;;
5543;SDS011;2795;47.652;13.128;2023-03-01T06:00:44;24.87;;;10.17;;
5543;SDS011;2795;47.652;13.128;2023-03-01T06:03:12;21.77;;;9.60;;
5543;SDS011;2795;47.652;13.128;2023-03-01T06:05:40;23.10;;;9.33;;
5543;SDS011;2795;47.652;13.128;2023-03-01T06:08:08;27.43;;;9.50;;
5543;SDS011;2795;47.652;13.128;2023-03-01T06:10:36;28.67;;;12.30;;
5543;SDS011;2795;47.652;13.128;2023-03-01T06:13:03;30.07;;;11.70;;
5543;SDS011;2795;47.652;13.128;2023-03-01T06:15:29;27.97;;;10.97;;
5543;SDS011;2795;47.652;13.128;2023-03-01T06:17:56;35.63;;;12.40;;
5543;SDS011;2795;47.652;13.128;2023-03-01T06:20:26;36.47;;;13.70;;
5543;SDS011;2795;47.652;13.128;2023-03-01T06:22:53;27.37;;;12.03;;
5543;SDS011;2795;47.652;13.128;2023-03-01T06:25:22;30.47;;;12.97;;
5543;SDS011;2795;47.652;13.128;2023-03-01T06:27:50;33.70;;;13.30;;
5543;SDS011;2795;47.652;13.128;2023-03-01T06:30:19;34.67;;;15.13;;
5543;SDS011;2795;47.652;13.128;2023-03-01T06:32:46;37.57;;;16.57;;
5543;SDS011;2795;47.652;13.128;2023-03-01T06:35:14;40.13;;;15.97;;
5543;SDS011;2795;47.652;13.128;2023-03-01T06:37:43;40.27;;;16.80;;
5543;SDS011;2795;47.652;13.128;2023-03-01T06:40:11;38.03;;;16.17;;
5543;SDS011;2795;47.652;13.128;2023-03-01T06:42:40;48.70;;;16.77;;
5543;SDS011;2795;47.652;13.128;2023-03-01T06:45:08;38.73;;;16.27;;
5543;SDS011;2795;47.652;13.128;2023-03-01T06:47:35;33.20;;;15.73;;
5543;SDS011;2795;47.652;13.128;2023-03-01T06:50:02;37.70;;;14.77;;
5543;SDS011;2795;47.652;13.128;2023-03-01T06:52:29;31.70;;;14.00;;
5543;SDS011;2795;47.652;13.128;2023-03-01T06:54:56;32.90;;;15.13;;
5543;SDS011;2795;47.652;13.128;2023-03-01T06:57:22;30.63;;;13.57;;
5543;SDS011;2795;47.652;13.128;2023-03-01T06:59:49;32.77;;;15.90;;
5543;SDS011;2795;47.652;13.128;2023-03-01T07:02:16;35.53;;;14.90;;
5543;SDS011;2795;47.652;13.128;2023-03-01T07:04:43;37.10;;;14.87;;
5543;SDS011;2795;47.652;13.128;2023-03-01T07:07:10;35.17;;;14.50;;
5543;SDS011;2795;47.652;13.128;2023-03-01T07:09:38;33.77;;;14.57;;
5543;SDS011;2795;47.652;13.128;2023-03-01T07:12:05;33.10;;;14.30;;
5543;SDS011;2795;47.652;13.128;2023-03-01T07:14:32;34.40;;;14.03;;
5543;SDS011;2795;47.652;13.128;2023-03-01T07:16:59;33.20;;;15.50;;
5543;SDS011;2795;47.652;13.128;2023-03-01T07:19:25;35.83;;;13.93;;
5543;SDS011;2795;47.652;13.128;2023-03-01T07:21:52;35.03;;;14.80;;
5543;SDS011;2795;47.652;13.128;2023-03-01T07:24:18;32.63;;;14.43;;
5543;SDS011;2795;47.652;13.128;2023-03-01T07:26:48;29.60;;;13.93;;
5543;SDS011;2795;47.652;13.128;2023-03-01T07:29:17;29.23;;;13.03;;
5543;SDS011;2795;47.652;13.128;2023-03-01T07:31:44;38.63;;;15.57;;
5543;SDS011;2795;47.652;13.128;2023-03-01T07:34:11;40.80;;;15.73;;
5543;SDS011;2795;47.652;13.128;2023-03-01T07:36:38;45.87;;;20.80;;
5543;SDS011;2795;47.652;13.128;2023-03-01T07:39:05;51.93;;;22.33;;
5543;SDS011;2795;47.652;13.128;2023-03-01T07:41:32;33.53;;;14.77;;
5543;SDS011;2795;47.652;13.128;2023-03-01T07:43:59;32.33;;;14.87;;
5543;SDS011;2795;47.652;13.128;2023-03-01T07:46:25;31.40;;;14.00;;
5543;SDS011;2795;47.652;13.128;2023-03-01T07:48:52;35.20;;;15.27;;
5543;SDS011;2795;47.652;13.128;2023-03-01T07:51:19;39.70;;;18.53;;
5543;SDS011;2795;47.652;13.128;2023-03-01T07:53:47;37.00;;;16.00;;
5543;SDS011;2795;47.652;13.128;2023-03-01T07:56:14;39.17;;;16.40;;
5543;SDS011;2795;47.652;13.128;2023-03-01T07:58:44;36.63;;;15.70;;
5543;SDS011;2795;47.652;13.128;2023-03-01T08:01:11;30.57;;;14.60;;
5543;SDS011;2795;47.652;13.128;2023-03-01T08:03:39;33.83;;;15.37;;
5543;SDS011;2795;47.652;13.128;2023-03-01T08:06:06;43.60;;;15.07;;
5543;SDS011;2795;47.652;13.128;2023-03-01T08:08:35;32.60;;;14.27;;
5543;SDS011;2795;47.652;13.128;2023-03-01T08:11:03;38.17;;;16.03;;
5543;SDS011;2795;47.652;13.128;2023-03-01T08:13:32;33.73;;;15.23;;
5543;SDS011;2795;47.652;13.128;2023-03-01T08:16:05;39.07;;;16.23;;
5543;SDS011;2795;47.652;13.128;2023-03-01T08:18:34;28.47;;;14.70;;
5543;SDS011;2795;47.652;13.128;2023-03-01T08:21:18;34.73;;;16.10;;
5543;SDS011;2795;47.652;13.128;2023-03-01T08:23:50;33.47;;;14.13;;
5543;SDS011;2795;47.652;13.128;2023-03-01T08:26:17;32.60;;;14.70;;
5543;SDS011;2795;47.652;13.128;2023-03-01T08:28:46;36.83;;;15.60;;
5543;SDS011;2795;47.652;13.128;2023-03-01T08:31:21;36.10;;;14.80;;
5543;SDS011;2795;47.652;13.128;2023-03-01T08:33:51;35.60;;;14.57;;
5543;SDS011;2795;47.652;13.128;2023-03-01T08:36:25;33.37;;;15.60;;
5543;SDS011;2795;47.652;13.128;2023-03-01T08:38:57;38.37;;;15.80;;
5543;SDS011;2795;47.652;13.128;2023-03-01T08:41:23;41.77;;;17.20;;
5543;SDS011;2795;47.652;13.128;2023-03-01T08:43:50;44.13;;;15.50;;
5543;SDS011;2795;47.652;13.128;2023-03-01T08:46:17;36.97;;;16.27;;
5543;SDS011;2795;47.652;13.128;2023-03-01T08:48:43;36.70;;;16.17;;
5543;SDS011;2795;47.652;13.128;2023-03-01T08:51:12;31.80;;;15.57;;
5543;SDS011;2795;47.652;13.128;2023-03-01T08:53:40;34.60;;;15.30;;
5543;SDS011;2795;47.652;13.128;2023-03-01T08:56:07;34.73;;;15.43;;
5543;SDS011;2795;47.652;13.128;2023-03-01T08:58:35;38.10;;;16.20;;
5543;SDS011;2795;47.652;13.128;2023-03-01T09:01:08;29.80;;;14.17;;
5543;SDS011;2795;47.652;13.128;2023-03-01T09:03:38;29.07;;;12.83;;
5543;SDS011;2795;47.652;13.128;2023-03-01T09:06:05;36.27;;;15.07;;
5543;SDS011;2795;47.652;13.128;2023-03-01T09:08:37;36.80;;;15.83;;
5543;SDS011;2795;47.652;13.128;2023-03-01T09:11:05;33.63;;;15.50;;
5543;SDS011;2795;47.652;13.128;2023-03-01T09:13:33;32.30;;;15.97;;
5543;SDS011;2795;47.652;13.128;2023-03-01T09:16:03;32.83;;;14.93;;
5543;SDS011;2795;47.652;13.128;2023-03-01T09:18:30;36.93;;;15.70;;
5543;SDS011;2795;47.652;13.128;2023-03-01T09:21:04;33.73;;;14.20;;
5543;SDS011;2795;47.652;13.128;2023-03-01T09:23:37;33.57;;;14.53;;
5543;SDS011;2795;47.652;13.128;2023-03-01T09:26:09;28.87;;;13.77;;
5543;SDS011;2795;47.652;13.128;2023-03-01T09:28:40;31.97;;;14.27;;
5543;SDS011;2795;47.652;13.128;2023-03-01T09:31:07;30.63;;;14.47;;
5543;SDS011;2795;47.652;13.128;2023-03-01T09:33:34;37.13;;;15.50;;
5543;SDS011;2795;47.652;13.128;2023-03-01T09:36:02;36.30;;;15.30;;
5543;SDS011;2795;47.652;13.128;2023-03-01T09:38:30;34.53;;;14.33;;
5543;SDS011;2795;47.652;13.128;2023-03-01T09:40:57;42.57;;;14.60;;
5543;SDS011;2795;47.652;13.128;2023-03-01T09:43:43;34.20;;;14.47;;
5543;SDS011;2795;47.652;13.128;2023-03-01T09:46:13;31.57;;;14.60;;
5543;SDS011;2795;47.652;13.128;2023-03-01T09:48:48;34.57;;;15.10;;
5543;SDS011;2795;47.652;13.128;2023-03-01T09:51:27;29.97;;;13.67;;
5543;SDS011;2795;47.652;13.128;2023-03-01T09:53:57;37.93;;;13.50;;
5543;SDS011;2795;47.652;13.128;2023-03-01T09:56:36;32.87;;;14.27;;
5543;SDS011;2795;47.652;13.128;2023-03-01T10:04:49;24.23;;;11.40;;
5543;SDS011;2795;47.652;13.128;2023-03-01T10:07:21;23.40;;;11.87;;
5543;SDS011;2795;47.652;13.128;2023-03-01T10:09:49;26.10;;;12.57;;
5543;SDS011;2795;47.652;13.128;2023-03-01T10:12:22;26.17;;;11.60;;
5543;SDS011;2795;47.652;13.128;2023-03-01T10:19:50;23.60;;;11.37;;
5543;SDS011;2795;47.652;13.128;2023-03-01T10:24:48;31.43;;;12.87;;
5543;SDS011;2795;47.652;13.128;2023-03-01T10:27:22;27.17;;;13.50;;
5543;SDS011;2795;47.652;13.128;2023-03-01T10:32:51;26.70;;;12.13;;
5543;SDS011;2795;47.652;13.128;2023-03-01T10:35:22;32.17;;;12.90;;
5543;SDS011;2795;47.652;13.128;2023-03-01T10:38:10;22.33;;;11.47;;
5543;SDS011;2795;47.652;13.128;2023-03-01T10:43:40;34.10;;;14.50;;
5543;SDS011;2795;47.652;13.128;2023-03-01T10:46:24;30.80;;;12.90;;
5543;SDS011;2795;47.652;13.128;2023-03-01T10:49:06;25.07;;;10.97;;
5543;SDS011;2795;47.652;13.128;2023-03-01T10:51:45;23.00;;;11.73;;
5543;SDS011;2795;47.652;13.128;2023-03-01T10:56:52;29.63;;;14.13;;
5543;SDS011;2795;47.652;13.128;2023-03-01T10:59:27;32.10;;;14.40;;
5543;SDS011;2795;47.652;13.128;2023-03-01T11:05:00;103.67;;;39.40;;
5543;SDS011;2795;47.652;13.128;2023-03-01T11:07:29;35.23;;;16.53;;
5543;SDS011;2795;47.652;13.128;2023-03-01T11:09:56;40.90;;;18.47;;
5543;SDS011;2795;47.652;13.128;2023-03-01T11:12:22;36.67;;;16.40;;
5543;SDS011;2795;47.652;13.128;2023-03-01T11:14:51;33.67;;;15.60;;
5543;SDS011;2795;47.652;13.128;2023-03-01T11:17:24;36.60;;;16.17;;
5543;SDS011;2795;47.652;13.128;2023-03-01T11:22:45;32.10;;;15.80;;
5543;SDS011;2795;47.652;13.128;2023-03-01T11:25:13;33.77;;;14.77;;
5543;SDS011;2795;47.652;13.128;2023-03-01T11:27:41;35.60;;;15.63;;
5543;SDS011;2795;47.652;13.128;2023-03-01T11:32:54;40.93;;;15.83;;
5543;SDS011;2795;47.652;13.128;2023-03-01T11:35:24;35.90;;;16.07;;
5543;SDS011;2795;47.652;13.128;2023-03-01T11:42:59;41.53;;;17.00;;
5543;SDS011;2795;47.652;13.128;2023-03-01T11:45:34;38.93;;;17.67;;
5543;SDS011;2795;47.652;13.128;2023-03-01T11:48:22;33.00;;;15.23;;
5543;SDS011;2795;47.652;13.128;2023-03-01T11:56:46;30.17;;;15.50;;
5543;SDS011;2795;47.652;13.128;2023-03-01T12:05:02;31.47;;;15.00;;
5543;SDS011;2795;47.652;13.128;2023-03-01T12:07:55;33.67;;;15.60;;
5543;SDS011;2795;47.652;13.128;2023-03-01T12:10:53;31.90;;;15.83;;
5543;SDS011;2795;47.652;13.128;2023-03-01T12:13:56;38.00;;;16.30;;
5543;SDS011;2795;47.652;13.128;2023-03-01T12:22:22;34.43;;;15.90;;
5543;SDS011;2795;47.652;13.128;2023-03-01T12:27:45;28.37;;;13.77;;
5543;SDS011;2795;47.652;13.128;2023-03-01T12:33:12;34.07;;;15.73;;
5543;SDS011;2795;47.652;13.128;2023-03-01T12:36:10;30.00;;;13.87;;
5543;SDS011;2795;47.652;13.128;2023-03-01T12:38:58;29.90;;;15.07;;
5543;SDS011;2795;47.652;13.128;2023-03-01T12:46:58;29.00;;;14.33;;
5543;SDS011;2795;47.652;13.128;2023-03-01T12:50:00;30.93;;;14.43;;
5543;SDS011;2795;47.652;13.128;2023-03-01T12:52:33;29.80;;;14.80;;
5543;SDS011;2795;47.652;13.128;2023-03-01T12:58:00;27.30;;;13.77;;
5543;SDS011;2795;47.652;13.128;2023-03-01T13:07:04;35.43;;;15.77;;
5543;SDS011;2795;47.652;13.128;2023-03-01T13:20:21;32.90;;;14.40;;
5543;SDS011;2795;47.652;13.128;2023-03-01T13:22:59;28.53;;;14.63;;
5543;SDS011;2795;47.652;13.128;2023-03-01T13:25:31;30.40;;;14.30;;
5543;SDS011;2795;47.652;13.128;2023-03-01T13:31:54;28.43;;;14.47;;
5543;SDS011;2795;47.652;13.128;2023-03-01T13:34:00;41.33;;;16.23;;
5543;SDS011;2795;47.652;13.128;2023-03-01T13:47:03;41.90;;;15.97;;
5543;SDS011;2795;47.652;13.128;2023-03-01T13:49:41;34.63;;;15.97;;
5543;SDS011;2795;47.652;13.128;2023-03-01T13:54:56;35.13;;;16.40;;
5543;SDS011;2795;47.652;13.128;2023-03-01T13:57:25;38.80;;;15.63;;
5543;SDS011;2795;47.652;13.128;2023-03-01T13:59:55;31.77;;;15.60;;
5543;SDS011;2795;47.652;13.128;2023-03-01T14:02:22;40.07;;;17.50;;
5543;SDS011;2795;47.652;13.128;2023-03-01T14:04:58;36.63;;;16.30;;
5543;SDS011;2795;47.652;13.128;2023-03-01T14:07:26;33.60;;;16.27;;
5543;SDS011;2795;47.652;13.128;2023-03-01T14:10:01;33.93;;;15.17;;
5543;SDS011;2795;47.652;13.128;2023-03-01T14:22:46;43.17;;;18.60;;
5543;SDS011;2795;47.652;13.128;2023-03-01T14:27:45;35.93;;;17.60;;
5543;SDS011;2795;47.652;13.128;2023-03-01T14:30:21;38.73;;;16.47;;
5543;SDS011;2795;47.652;13.128;2023-03-01T14:32:56;37.50;;;16.10;;
5543;SDS011;2795;47.652;13.128;2023-03-01T14:35:28;41.13;;;18.50;;
5543;SDS011;2795;47.652;13.128;2023-03-01T14:37:57;39.80;;;17.90;;
5543;SDS011;2795;47.652;13.128;2023-03-01T14:40:26;37.53;;;17.20;;
5543;SDS011;2795;47.652;13.128;2023-03-01T14:42:58;39.43;;;17.50;;
5543;SDS011;2795;47.652;13.128;2023-03-01T14:45:27;38.23;;;19.07;;
5543;SDS011;2795;47.652;13.128;2023-03-01T14:47:54;35.60;;;16.97;;
5543;SDS011;2795;47.652;13.128;2023-03-01T14:50:27;39.10;;;17.00;;
5543;SDS011;2795;47.652;13.128;2023-03-01T14:52:55;42.60;;;19.80;;
5543;SDS011;2795;47.652;13.128;2023-03-01T14:55:26;43.63;;;19.30;;
5543;SDS011;2795;47.652;13.128;2023-03-01T14:57:53;45.03;;;17.93;;
5543;SDS011;2795;47.652;13.128;2023-03-01T15:00:21;41.90;;;20.03;;
5543;SDS011;2795;47.652;13.128;2023-03-01T15:02:50;49.53;;;19.53;;
5543;SDS011;2795;47.652;13.128;2023-03-01T15:05:22;40.47;;;18.00;;
5543;SDS011;2795;47.652;13.128;2023-03-01T15:07:52;38.47;;;19.13;;
5543;SDS011;2795;47.652;13.128;2023-03-01T15:10:22;37.93;;;16.67;;
5543;SDS011;2795;47.652;13.128;2023-03-01T15:12:53;38.73;;;16.90;;
5543;SDS011;2795;47.652;13.128;2023-03-01T15:15:33;34.33;;;16.07;;
5543;SDS011;2795;47.652;13.128;2023-03-01T15:18:03;34.33;;;17.10;;
5543;SDS011;2795;47.652;13.128;2023-03-01T15:20:31;41.73;;;17.07;;
5543;SDS011;2795;47.652;13.128;2023-03-01T15:23:02;38.43;;;16.67;;
5543;SDS011;2795;47.652;13.128;2023-03-01T15:25:29;32.67;;;14.77;;
5543;SDS011;2795;47.652;13.128;2023-03-01T15:27:57;24.60;;;11.10;;
5543;SDS011;2795;47.652;13.128;2023-03-01T15:30:26;26.60;;;11.83;;
5543;SDS011;2795;47.652;13.128;2023-03-01T15:33:17;19.63;;;9.10;;
5543;SDS011;2795;47.652;13.128;2023-03-01T15:35:48;22.20;;;9.80;;
5543;SDS011;2795;47.652;13.128;2023-03-01T15:41:00;22.80;;;10.60;;
5543;SDS011;2795;47.652;13.128;2023-03-01T15:46:13;24.33;;;10.83;;
5543;SDS011;2795;47.652;13.128;2023-03-01T15:48:46;19.97;;;9.53;;
5543;SDS011;2795;47.652;13.128;2023-03-01T15:51:15;36.67;;;15.23;;
5543;SDS011;2795;47.652;13.128;2023-03-01T15:53:43;33.70;;;14.73;;
5543;SDS011;2795;47.652;13.128;2023-03-01T15:56:19;27.57;;;13.67;;
5543;SDS011;2795;47.652;13.128;2023-03-01T15:58:46;31.53;;;13.63;;
5543;SDS011;2795;47.652;13.128;2023-03-01T16:01:13;34.10;;;14.03;;
5543;SDS011;2795;47.652;13.128;2023-03-01T16:03:41;42.50;;;14.77;;
5543;SDS011;2795;47.652;13.128;2023-03-01T16:06:09;32.13;;;14.30;;
5543;SDS011;2795;47.652;13.128;2023-03-01T16:08:36;30.57;;;12.37;;
5543;SDS011;2795;47.652;13.128;2023-03-01T16:11:04;19.60;;;10.23;;
5543;SDS011;2795;47.652;13.128;2023-03-01T16:13:32;27.33;;;11.57;;
5543;SDS011;2795;47.652;13.128;2023-03-01T16:15:59;21.43;;;11.13;;
5543;SDS011;2795;47.652;13.128;2023-03-01T16:18:25;29.10;;;11.47;;
5543;SDS011;2795;47.652;13.128;2023-03-01T16:20:52;23.33;;;11.17;;
5543;SDS011;2795;47.652;13.128;2023-03-01T16:23:20;28.53;;;12.70;;
5543;SDS011;2795;47.652;13.128;2023-03-01T16:25:47;24.87;;;11.40;;
5543;SDS011;2795;47.652;13.128;2023-03-01T16:28:14;33.77;;;12.97;;
5543;SDS011;2795;47.652;13.128;2023-03-01T16:30:44;25.57;;;11.50;;
5543;SDS011;2795;47.652;13.128;2023-03-01T16:33:14;22.37;;;11.00;;
5543;SDS011;2795;47.652;13.128;2023-03-01T16:35:59;29.10;;;10.67;;
5543;SDS011;2795;47.652;13.128;2023-03-01T16:38:28;28.50;;;12.20;;
5543;SDS011;2795;47.652;13.128;2023-03-01T16:40:55;35.73;;;13.27;;
5543;SDS011;2795;47.652;13.128;2023-03-01T16:43:22;35.97;;;13.60;;
5543;SDS011;2795;47.652;13.128;2023-03-01T16:45:49;33.53;;;12.43;;
5543;SDS011;2795;47.652;13.128;2023-03-01T16:48:15;48.13;;;18.60;;
5543;SDS011;2795;47.652;13.128;2023-03-01T16:50:42;32.33;;;13.17;;
5543;SDS011;2795;47.652;13.128;2023-03-01T16:53:08;30.27;;;10.70;;
5543;SDS011;2795;47.652;13.128;2023-03-01T16:55:35;31.03;;;12.57;;
5543;SDS011;2795;47.652;13.128;2023-03-01T16:58:02;39.50;;;14.70;;
5543;SDS011;2795;47.652;13.128;2023-03-01T17:00:30;32.30;;;13.83;;
5543;SDS011;2795;47.652;13.128;2023-03-01T17:02:57;29.33;;;12.53;;
5543;SDS011;2795;47.652;13.128;2023-03-01T17:05:24;29.87;;;13.03;;